Accueil
METAR-TAF:

METAR-TAF

Aéroports :

Florence, Italie

Aéroport de Florence-Peretola

latitude: 43-48N, longitude: 011-12E, altitude: 40 m

Observation

Le bulletin a été fait il y a 21 minutes, à 21:50 UTC
Vent 1 kt de direction variable
Température 9°C
Humidité 100%
Pression 1021 hPa
Visibilité: 4000 m
Nuages épars à une hauteur de 3000 ft
Brouillard mince

METAR: LIRQ 242150Z VRB01KT 4000 MIFG SCT030 09/09 Q1021

Heure: 23:11 (22:11 UTC)

Prévision

Le bulletin a été fait il y a 5 heures et 11 minutes, à 17:00 UTC
Prévision valable du 24 à 18 UTC au 25 à 18 UTC
Vent 6 kt de direction variable
Visibilité: 4000 m
Nuages fragmentés à une hauteur de 4000 ft
brume
Evoluant progressivement
du 25 à 09 UTC au 25 à 11 UTC
pluie

TAF: LIRQ 241700Z 2418/2518 VRB06KT 4000 BR BKN040 BECMG 2509/2511 RA

Observations et prévisions météorologiques de plus de 4000 aéroports (messages METAR et TAF).

Les stations disponibles sont représentées par des disques jaunes et rouges sur la carte.

Passer la souris dessus pour voir le nom de la station.

Cliquer dessus pour voir les observations et prévisions météorologiques.

Pour changer de carte: cliquez sur les boutons verts avec une croix noire pour zoomer, sur le bouton vert avec un tiret pour effectuer un zoom arrière, ou sur les flèches vertes pour les cartes adjacentes.


METAR-TAF: